South Ockendon, United Kingdom
Current Conditions -  °F | °C
As of 2:20 AM on Saturday 20 Dec 2014 (Local Time) from EGLC Reporting Station
Clear Clear  
Wind Chill: 37°   Ceiling: Unl
Heat Index: 45°   Visibility: 6mi
Dew Point: 37°   Wind: 16mph
Humidity: 76%   Direction: 250°WSW
Pressure: 30.21"   Gusts: NA
Location:  51.51°N, 0.28°E
Report Text: EGLC 200220Z AUTO 25014KT 9999 NCD 07/03 Q1023
Loading
Personal Weather Stations






























Interactive Weather Map New forecast layout! Learn more

10-Day Weather Forecast

Advertisements
Track Severe Weather on mobile